sensor_id;sensor_type;location;lat;lon;timestamp;pressure;altitude;pressure_sealevel;temperature;humidity
52839;BME280;39219;53.678;9.856;2022-08-01T00:00:08;101032.19;;;18.44;100.00
52839;BME280;39219;53.678;9.856;2022-08-01T00:02:35;101040.25;;;18.44;100.00
52839;BME280;39219;53.678;9.856;2022-08-01T00:05:03;101035.72;;;18.45;100.00
52839;BME280;39219;53.678;9.856;2022-08-01T00:07:31;101037.47;;;18.46;100.00
52839;BME280;39219;53.678;9.856;2022-08-01T00:09:57;101047.53;;;18.42;100.00
52839;BME280;39219;53.678;9.856;2022-08-01T00:12:25;101041.34;;;18.40;100.00
52839;BME280;39219;53.678;9.856;2022-08-01T00:14:52;101045.06;;;18.38;100.00
52839;BME280;39219;53.678;9.856;2022-08-01T00:17:18;101046.56;;;18.43;100.00
52839;BME280;39219;53.678;9.856;2022-08-01T00:19:45;101041.19;;;18.43;100.00
52839;BME280;39219;53.678;9.856;2022-08-01T00:22:11;101037.63;;;18.43;100.00
52839;BME280;39219;53.678;9.856;2022-08-01T00:24:38;101042.16;;;18.42;100.00
52839;BME280;39219;53.678;9.856;2022-08-01T00:27:04;101038.66;;;18.40;100.00
52839;BME280;39219;53.678;9.856;2022-08-01T00:29:32;101045.78;;;18.41;100.00
52839;BME280;39219;53.678;9.856;2022-08-01T00:31:59;101037.63;;;18.43;100.00
52839;BME280;39219;53.678;9.856;2022-08-01T00:34:25;101045.63;;;18.44;100.00
52839;BME280;39219;53.678;9.856;2022-08-01T00:36:52;101039.47;;;18.42;100.00
52839;BME280;39219;53.678;9.856;2022-08-01T00:39:18;101041.19;;;18.43;100.00
52839;BME280;39219;53.678;9.856;2022-08-01T00:41:45;101038.56;;;18.42;100.00
52839;BME280;39219;53.678;9.856;2022-08-01T00:44:11;101037.88;;;18.38;100.00
52839;BME280;39219;53.678;9.856;2022-08-01T00:46:39;101036.03;;;18.39;100.00
52839;BME280;39219;53.678;9.856;2022-08-01T00:49:06;101036.78;;;18.42;100.00
52839;BME280;39219;53.678;9.856;2022-08-01T00:51:32;101037.63;;;18.43;100.00
52839;BME280;39219;53.678;9.856;2022-08-01T00:54:00;101039.47;;;18.42;100.00
52839;BME280;39219;53.678;9.856;2022-08-01T00:56:27;101043.09;;;18.41;100.00
52839;BME280;39219;53.678;9.856;2022-08-01T00:58:55;101051.22;;;18.40;100.00
52839;BME280;39219;53.678;9.856;2022-08-01T01:01:21;101039.53;;;18.41;100.00
52839;BME280;39219;53.678;9.856;2022-08-01T01:03:51;101042.22;;;18.41;100.00
52839;BME280;39219;53.678;9.856;2022-08-01T01:06:33;101046.63;;;18.42;100.00
52839;BME280;39219;53.678;9.856;2022-08-01T01:09:16;101044.91;;;18.41;100.00
52839;BME280;39219;53.678;9.856;2022-08-01T01:11:45;101043.25;;;18.38;100.00
52839;BME280;39219;53.678;9.856;2022-08-01T01:14:21;101050.38;;;18.39;100.00
52839;BME280;39219;53.678;9.856;2022-08-01T01:16:50;101047.91;;;18.34;100.00
52839;BME280;39219;53.678;9.856;2022-08-01T01:19:23;101045.22;;;18.34;100.00
52839;BME280;39219;53.678;9.856;2022-08-01T01:22:07;101043.16;;;18.40;100.00
52839;BME280;39219;53.678;9.856;2022-08-01T01:24:43;101044.28;;;18.35;100.00
52839;BME280;39219;53.678;9.856;2022-08-01T01:27:19;101039.63;;;18.39;100.00
52839;BME280;39219;53.678;9.856;2022-08-01T01:29:52;101047.53;;;18.42;100.00
52839;BME280;39219;53.678;9.856;2022-08-01T01:32:23;101049.16;;;18.45;100.00
52839;BME280;39219;53.678;9.856;2022-08-01T01:34:54;101053.69;;;18.44;100.00
52839;BME280;39219;53.678;9.856;2022-08-01T01:37:23;101050.22;;;18.42;100.00
52839;BME280;39219;53.678;9.856;2022-08-01T01:39:52;101053.06;;;18.39;100.00
52839;BME280;39219;53.678;9.856;2022-08-01T01:42:20;101054.16;;;18.35;100.00
52839;BME280;39219;53.678;9.856;2022-08-01T01:44:51;101063.25;;;18.32;100.00
52839;BME280;39219;53.678;9.856;2022-08-01T01:47:20;101061.44;;;18.33;100.00
52839;BME280;39219;53.678;9.856;2022-08-01T01:49:47;101058.75;;;18.33;100.00
52839;BME280;39219;53.678;9.856;2022-08-01T01:52:16;101063.25;;;18.32;100.00
52839;BME280;39219;53.678;9.856;2022-08-01T01:54:47;101064.03;;;18.34;100.00
52839;BME280;39219;53.678;9.856;2022-08-01T01:57:15;101063.25;;;18.32;100.00
52839;BME280;39219;53.678;9.856;2022-08-01T01:59:44;101061.44;;;18.33;100.00
52839;BME280;39219;53.678;9.856;2022-08-01T02:02:14;101069.41;;;18.34;100.00
52839;BME280;39219;53.678;9.856;2022-08-01T02:04:44;101068.47;;;18.35;100.00
52839;BME280;39219;53.678;9.856;2022-08-01T02:07:14;101072.03;;;18.36;100.00
52839;BME280;39219;53.678;9.856;2022-08-01T02:09:43;101070.44;;;18.32;100.00
52839;BME280;39219;53.678;9.856;2022-08-01T02:12:12;101075.09;;;18.28;100.00
52839;BME280;39219;53.678;9.856;2022-08-01T02:14:40;101068.88;;;18.28;100.00
52839;BME280;39219;53.678;9.856;2022-08-01T02:17:11;101077.72;;;18.30;100.00
52839;BME280;39219;53.678;9.856;2022-08-01T02:19:39;101077.88;;;18.27;100.00
52839;BME280;39219;53.678;9.856;2022-08-01T02:22:10;101074.41;;;18.25;100.00
52839;BME280;39219;53.678;9.856;2022-08-01T02:24:42;101069.28;;;18.20;100.00
52839;BME280;39219;53.678;9.856;2022-08-01T02:27:12;101073.59;;;18.23;100.00
52839;BME280;39219;53.678;9.856;2022-08-01T02:29:43;101078.19;;;18.20;100.00
52839;BME280;39219;53.678;9.856;2022-08-01T02:32:12;101074.56;;;18.22;100.00
52839;BME280;39219;53.678;9.856;2022-08-01T02:34:46;101075.91;;;18.13;100.00
52839;BME280;39219;53.678;9.856;2022-08-01T02:37:13;101071.22;;;18.16;100.00
52839;BME280;39219;53.678;9.856;2022-08-01T02:39:42;101071.22;;;18.16;100.00
52839;BME280;39219;53.678;9.856;2022-08-01T02:42:11;101066.00;;;18.13;100.00
52839;BME280;39219;53.678;9.856;2022-08-01T02:44:41;101072.31;;;18.12;100.00
52839;BME280;39219;53.678;9.856;2022-08-01T02:47:09;101072.41;;;18.11;100.00
52839;BME280;39219;53.678;9.856;2022-08-01T02:49:39;101070.44;;;18.14;100.00
52839;BME280;39219;53.678;9.856;2022-08-01T02:52:11;101071.31;;;18.15;100.00
52839;BME280;39219;53.678;9.856;2022-08-01T02:54:39;101077.63;;;18.14;100.00
52839;BME280;39219;53.678;9.856;2022-08-01T02:57:07;101072.41;;;18.11;100.00
52839;BME280;39219;53.678;9.856;2022-08-01T02:59:37;101073.41;;;18.08;100.00
52839;BME280;39219;53.678;9.856;2022-08-01T03:02:04;101076.91;;;18.10;100.00
52839;BME280;39219;53.678;9.856;2022-08-01T03:04:34;101081.72;;;18.03;100.00
52839;BME280;39219;53.678;9.856;2022-08-01T03:07:03;101082.56;;;18.04;100.00
52839;BME280;39219;53.678;9.856;2022-08-01T03:09:45;101077.34;;;18.01;100.00
52839;BME280;39219;53.678;9.856;2022-08-01T03:12:15;101077.47;;;17.98;100.00
52839;BME280;39219;53.678;9.856;2022-08-01T03:14:43;101083.88;;;17.95;100.00
52839;BME280;39219;53.678;9.856;2022-08-01T03:17:11;101085.53;;;17.98;100.00
52839;BME280;39219;53.678;9.856;2022-08-01T03:19:38;101084.03;;;17.92;100.00
52839;BME280;39219;53.678;9.856;2022-08-01T03:22:06;101087.38;;;17.97;100.00
52839;BME280;39219;53.678;9.856;2022-08-01T03:24:35;101086.56;;;17.95;100.00
52839;BME280;39219;53.678;9.856;2022-08-01T03:27:03;101090.41;;;17.89;100.00
52839;BME280;39219;53.678;9.856;2022-08-01T03:29:31;101092.81;;;17.96;100.00
52839;BME280;39219;53.678;9.856;2022-08-01T03:32:00;101096.59;;;17.91;100.00
52839;BME280;39219;53.678;9.856;2022-08-01T03:34:27;101102.13;;;17.88;100.00
52839;BME280;39219;53.678;9.856;2022-08-01T03:36:57;101096.75;;;17.88;100.00
52839;BME280;39219;53.678;9.856;2022-08-01T03:39:29;101095.88;;;17.88;100.00
52839;BME280;39219;53.678;9.856;2022-08-01T03:42:01;101098.41;;;17.91;100.00
52839;BME280;39219;53.678;9.856;2022-08-01T03:44:33;101095.44;;;17.97;100.00
52839;BME280;39219;53.678;9.856;2022-08-01T03:47:05;101094.44;;;18.00;100.00
52839;BME280;39219;53.678;9.856;2022-08-01T03:49:38;101088.22;;;17.98;100.00
52839;BME280;39219;53.678;9.856;2022-08-01T03:52:08;101103.41;;;17.99;100.00
52839;BME280;39219;53.678;9.856;2022-08-01T03:54:37;101102.47;;;18.00;100.00
52839;BME280;39219;53.678;9.856;2022-08-01T03:57:06;101102.34;;;18.03;100.00
52839;BME280;39219;53.678;9.856;2022-08-01T03:59:34;101104.97;;;18.04;100.00
52839;BME280;39219;53.678;9.856;2022-08-01T04:02:03;101109.53;;;18.02;100.00
52839;BME280;39219;53.678;9.856;2022-08-01T04:04:30;101112.41;;;17.98;100.00
52839;BME280;39219;53.678;9.856;2022-08-01T04:06:57;101128.41;;;18.01;100.00
52839;BME280;39219;53.678;9.856;2022-08-01T04:09:29;101124.63;;;18.05;100.00
52839;BME280;39219;53.678;9.856;2022-08-01T04:11:56;101134.53;;;18.04;100.00
52839;BME280;39219;53.678;9.856;2022-08-01T04:14:24;101128.19;;;18.05;100.00
52839;BME280;39219;53.678;9.856;2022-08-01T04:16:50;101137.91;;;18.08;100.00
52839;BME280;39219;53.678;9.856;2022-08-01T04:19:17;101132.47;;;18.10;100.00
52839;BME280;39219;53.678;9.856;2022-08-01T04:21:43;101128.06;;;18.09;100.00
52839;BME280;39219;53.678;9.856;2022-08-01T04:24:14;101134.94;;;18.14;100.00
52839;BME280;39219;53.678;9.856;2022-08-01T04:26:43;101139.75;;;18.08;100.00
52839;BME280;39219;53.678;9.856;2022-08-01T04:29:11;101150.25;;;18.12;100.00
52839;BME280;39219;53.678;9.856;2022-08-01T04:31:46;101152.78;;;18.15;100.00
52839;BME280;39219;53.678;9.856;2022-08-01T04:34:16;101156.66;;;18.10;100.00
52839;BME280;39219;53.678;9.856;2022-08-01T04:36:44;101167.56;;;18.07;100.00
52839;BME280;39219;53.678;9.856;2022-08-01T04:39:12;101165.72;;;18.07;100.00
52839;BME280;39219;53.678;9.856;2022-08-01T04:41:39;101166.69;;;18.06;100.00
52839;BME280;39219;53.678;9.856;2022-08-01T04:44:06;101172.19;;;18.03;100.00
52839;BME280;39219;53.678;9.856;2022-08-01T04:46:33;101173.41;;;17.96;100.00
52839;BME280;39219;53.678;9.856;2022-08-01T04:49:05;101167.38;;;17.90;100.00
52839;BME280;39219;53.678;9.856;2022-08-01T04:51:32;101175.44;;;17.90;100.00
52839;BME280;39219;53.678;9.856;2022-08-01T04:53:59;101173.25;;;17.99;100.00
52839;BME280;39219;53.678;9.856;2022-08-01T04:56:26;101178.59;;;18.00;100.00
52839;BME280;39219;53.678;9.856;2022-08-01T04:58:53;101178.38;;;18.05;100.00
52839;BME280;39219;53.678;9.856;2022-08-01T05:01:33;101179.91;;;18.11;100.00
52839;BME280;39219;53.678;9.856;2022-08-01T05:04:00;101177.22;;;18.11;100.00
52839;BME280;39219;53.678;9.856;2022-08-01T05:06:27;101174.94;;;18.20;100.00
52839;BME280;39219;53.678;9.856;2022-08-01T05:08:56;101179.88;;;18.30;100.00
52839;BME280;39219;53.678;9.856;2022-08-01T05:11:22;101176.09;;;18.34;100.00
52839;BME280;39219;53.678;9.856;2022-08-01T05:13:49;101179.56;;;18.36;100.00
52839;BME280;39219;53.678;9.856;2022-08-01T05:16:16;101180.38;;;18.38;100.00
52839;BME280;39219;53.678;9.856;2022-08-01T05:18:43;101177.38;;;18.44;100.00
52839;BME280;39219;53.678;9.856;2022-08-01T05:21:09;101182.81;;;18.43;100.00
52839;BME280;39219;53.678;9.856;2022-08-01T05:23:37;101185.50;;;18.43;100.00
52839;BME280;39219;53.678;9.856;2022-08-01T05:26:03;101195.91;;;18.50;100.00
52839;BME280;39219;53.678;9.856;2022-08-01T05:28:30;101199.13;;;18.57;100.00
52839;BME280;39219;53.678;9.856;2022-08-01T05:30:56;101201.38;;;18.67;100.00
52839;BME280;39219;53.678;9.856;2022-08-01T05:33:23;101198.28;;;18.74;100.00
52839;BME280;39219;53.678;9.856;2022-08-01T05:35:49;101201.84;;;18.92;100.00
52839;BME280;39219;53.678;9.856;2022-08-01T05:38:16;101211.31;;;19.19;100.00
52839;BME280;39219;53.678;9.856;2022-08-01T05:40:44;101210.78;;;19.28;100.00
52839;BME280;39219;53.678;9.856;2022-08-01T05:43:10;101212.22;;;19.35;100.00
52839;BME280;39219;53.678;9.856;2022-08-01T05:45:37;101211.69;;;19.29;100.00
52839;BME280;39219;53.678;9.856;2022-08-01T05:48:04;101210.66;;;19.14;100.00
52839;BME280;39219;53.678;9.856;2022-08-01T05:50:30;101219.88;;;18.90;100.00
52839;BME280;39219;53.678;9.856;2022-08-01T05:52:57;101221.06;;;18.85;100.00
52839;BME280;39219;53.678;9.856;2022-08-01T05:55:23;101221.31;;;18.80;100.00
52839;BME280;39219;53.678;9.856;2022-08-01T05:57:51;101223.28;;;18.76;100.00
52839;BME280;39219;53.678;9.856;2022-08-01T06:00:18;101219.47;;;18.63;100.00
52839;BME280;39219;53.678;9.856;2022-08-01T06:02:44;101226.31;;;18.51;100.00
52839;BME280;39219;53.678;9.856;2022-08-01T06:05:11;101231.66;;;18.53;100.00
52839;BME280;39219;53.678;9.856;2022-08-01T06:07:37;101242.56;;;18.49;100.00
52839;BME280;39219;53.678;9.856;2022-08-01T06:10:05;101242.97;;;18.59;100.00
52839;BME280;39219;53.678;9.856;2022-08-01T06:12:32;101233.34;;;18.90;100.00
52839;BME280;39219;53.678;9.856;2022-08-01T06:15:00;101242.00;;;18.97;100.00
52839;BME280;39219;53.678;9.856;2022-08-01T06:17:27;101242.44;;;18.88;100.00
52839;BME280;39219;53.678;9.856;2022-08-01T06:19:53;101250.81;;;18.82;100.00
52839;BME280;39219;53.678;9.856;2022-08-01T06:22:20;101243.31;;;18.71;100.00
52839;BME280;39219;53.678;9.856;2022-08-01T06:24:47;101247.25;;;18.63;100.00
52839;BME280;39219;53.678;9.856;2022-08-01T06:27:14;101259.00;;;18.61;100.00
52839;BME280;39219;53.678;9.856;2022-08-01T06:29:40;101262.34;;;18.66;100.00
52839;BME280;39219;53.678;9.856;2022-08-01T06:32:09;101259.94;;;18.79;100.00
52839;BME280;39219;53.678;9.856;2022-08-01T06:34:36;101263.22;;;19.03;100.00
52839;BME280;39219;53.678;9.856;2022-08-01T06:37:02;101264.97;;;19.04;100.00
52839;BME280;39219;53.678;9.856;2022-08-01T06:39:29;101264.50;;;18.96;100.00
52839;BME280;39219;53.678;9.856;2022-08-01T06:41:56;101260.59;;;19.02;100.00
52839;BME280;39219;53.678;9.856;2022-08-01T06:44:23;101273.38;;;19.16;100.00
52839;BME280;39219;53.678;9.856;2022-08-01T06:46:49;101276.75;;;19.37;100.00
52839;BME280;39219;53.678;9.856;2022-08-01T06:49:17;101272.81;;;19.44;100.00
52839;BME280;39219;53.678;9.856;2022-08-01T06:51:44;101266.97;;;19.70;100.00
52839;BME280;39219;53.678;9.856;2022-08-01T06:54:10;101263.00;;;20.42;100.00
52839;BME280;39219;53.678;9.856;2022-08-01T06:56:37;101282.41;;;20.65;98.88
52839;BME280;39219;53.678;9.856;2022-08-01T06:59:03;101275.34;;;20.47;98.74
52839;BME280;39219;53.678;9.856;2022-08-01T07:01:30;101277.25;;;20.12;99.95
52839;BME280;39219;53.678;9.856;2022-08-01T07:03:56;101280.63;;;20.00;100.00
52839;BME280;39219;53.678;9.856;2022-08-01T07:06:24;101285.72;;;19.89;100.00
52839;BME280;39219;53.678;9.856;2022-08-01T07:08:51;101280.47;;;19.52;100.00
52839;BME280;39219;53.678;9.856;2022-08-01T07:11:18;101288.22;;;19.41;100.00
52839;BME280;39219;53.678;9.856;2022-08-01T07:13:44;101294.09;;;19.31;100.00
52839;BME280;39219;53.678;9.856;2022-08-01T07:16:11;101294.28;;;19.11;100.00
52839;BME280;39219;53.678;9.856;2022-08-01T07:18:38;101291.19;;;19.18;100.00
52839;BME280;39219;53.678;9.856;2022-08-01T07:21:04;101290.13;;;19.38;100.00
52839;BME280;39219;53.678;9.856;2022-08-01T07:23:32;101301.53;;;19.61;100.00
52839;BME280;39219;53.678;9.856;2022-08-01T07:25:59;101299.03;;;19.74;99.71
52839;BME280;39219;53.678;9.856;2022-08-01T07:28:26;101304.66;;;19.87;96.17
52839;BME280;39219;53.678;9.856;2022-08-01T07:30:53;101308.22;;;19.88;96.55
52839;BME280;39219;53.678;9.856;2022-08-01T07:33:20;101318.06;;;19.89;95.91
52839;BME280;39219;53.678;9.856;2022-08-01T07:35:47;101315.84;;;19.97;93.67
52839;BME280;39219;53.678;9.856;2022-08-01T07:38:14;101313.28;;;20.11;90.63
52839;BME280;39219;53.678;9.856;2022-08-01T07:40:43;101323.22;;;20.43;88.68
52839;BME280;39219;53.678;9.856;2022-08-01T07:43:10;101322.31;;;20.59;87.28
52839;BME280;39219;53.678;9.856;2022-08-01T07:45:37;101337.16;;;20.67;86.68
52839;BME280;39219;53.678;9.856;2022-08-01T07:48:04;101338.72;;;20.88;86.86
52839;BME280;39219;53.678;9.856;2022-08-01T07:50:30;101336.72;;;21.22;84.44
52839;BME280;39219;53.678;9.856;2022-08-01T07:52:57;101341.34;;;21.36;82.71
52839;BME280;39219;53.678;9.856;2022-08-01T07:55:24;101351.31;;;21.95;78.63
52839;BME280;39219;53.678;9.856;2022-08-01T07:57:52;101363.78;;;22.26;76.02
52839;BME280;39219;53.678;9.856;2022-08-01T08:00:19;101362.72;;;22.58;76.18
52839;BME280;39219;53.678;9.856;2022-08-01T08:02:45;101372.53;;;23.56;69.11
52839;BME280;39219;53.678;9.856;2022-08-01T08:05:12;101371.47;;;22.61;71.42
52839;BME280;39219;53.678;9.856;2022-08-01T08:07:39;101380.94;;;21.96;76.08
52839;BME280;39219;53.678;9.856;2022-08-01T08:10:07;101386.13;;;21.54;77.15
52839;BME280;39219;53.678;9.856;2022-08-01T08:12:34;101390.09;;;21.02;79.76
52839;BME280;39219;53.678;9.856;2022-08-01T08:15:02;101385.13;;;22.16;75.71
52839;BME280;39219;53.678;9.856;2022-08-01T08:17:31;101389.13;;;23.24;69.59
52839;BME280;39219;53.678;9.856;2022-08-01T08:19:58;101389.28;;;24.40;65.30
52839;BME280;39219;53.678;9.856;2022-08-01T08:22:25;101388.78;;;25.69;62.90
52839;BME280;39219;53.678;9.856;2022-08-01T08:24:51;101386.03;;;26.73;57.99
52839;BME280;39219;53.678;9.856;2022-08-01T08:27:18;101403.88;;;27.97;54.33
52839;BME280;39219;53.678;9.856;2022-08-01T08:29:44;101397.84;;;27.51;53.20
52839;BME280;39219;53.678;9.856;2022-08-01T08:32:12;101399.13;;;26.80;49.58
52839;BME280;39219;53.678;9.856;2022-08-01T08:34:39;101396.97;;;25.81;51.93
52839;BME280;39219;53.678;9.856;2022-08-01T08:37:05;101399.94;;;26.25;51.13
52839;BME280;39219;53.678;9.856;2022-08-01T08:39:32;101399.53;;;26.64;51.59
52839;BME280;39219;53.678;9.856;2022-08-01T08:41:59;101400.63;;;26.72;49.67
52839;BME280;39219;53.678;9.856;2022-08-01T08:44:27;101406.63;;;26.32;50.60
52839;BME280;39219;53.678;9.856;2022-08-01T08:46:55;101408.84;;;26.27;49.40
52839;BME280;39219;53.678;9.856;2022-08-01T08:49:25;101406.56;;;26.09;51.07
52839;BME280;39219;53.678;9.856;2022-08-01T08:51:53;101418.59;;;26.29;52.29
52839;BME280;39219;53.678;9.856;2022-08-01T08:54:24;101419.25;;;25.86;50.76
52839;BME280;39219;53.678;9.856;2022-08-01T08:56:52;101413.44;;;25.91;50.70
52839;BME280;39219;53.678;9.856;2022-08-01T08:59:19;101422.69;;;26.24;50.20
52839;BME280;39219;53.678;9.856;2022-08-01T09:01:47;101419.44;;;25.71;48.64
52839;BME280;39219;53.678;9.856;2022-08-01T09:04:14;101426.03;;;26.16;49.73
52839;BME280;39219;53.678;9.856;2022-08-01T09:06:42;101429.84;;;26.59;48.10
52839;BME280;39219;53.678;9.856;2022-08-01T09:09:09;101443.22;;;26.51;46.55
52839;BME280;39219;53.678;9.856;2022-08-01T09:11:36;101447.19;;;26.35;45.90
52839;BME280;39219;53.678;9.856;2022-08-01T09:14:05;101446.97;;;26.38;47.67
52839;BME280;39219;53.678;9.856;2022-08-01T09:16:33;101443.22;;;26.62;50.12
52839;BME280;39219;53.678;9.856;2022-08-01T09:19:08;101440.38;;;26.41;48.62
52839;BME280;39219;53.678;9.856;2022-08-01T09:21:34;101435.94;;;26.51;49.23
52839;BME280;39219;53.678;9.856;2022-08-01T09:24:03;101442.38;;;26.73;50.11
52839;BME280;39219;53.678;9.856;2022-08-01T09:26:32;101451.16;;;26.99;50.84
52839;BME280;39219;53.678;9.856;2022-08-01T09:29:00;101452.97;;;27.10;47.63
52839;BME280;39219;53.678;9.856;2022-08-01T09:31:28;101449.16;;;26.56;51.01
52839;BME280;39219;53.678;9.856;2022-08-01T09:33:57;101449.19;;;26.33;50.77
52839;BME280;39219;53.678;9.856;2022-08-01T09:36:26;101448.69;;;26.39;50.38
52839;BME280;39219;53.678;9.856;2022-08-01T09:39:14;101455.00;;;25.93;51.09
52839;BME280;39219;53.678;9.856;2022-08-01T09:41:41;101454.09;;;26.16;51.61
52839;BME280;39219;53.678;9.856;2022-08-01T09:44:07;101449.31;;;25.96;52.70
52839;BME280;39219;53.678;9.856;2022-08-01T09:46:34;101453.72;;;25.85;52.84
52839;BME280;39219;53.678;9.856;2022-08-01T09:49:03;101458.88;;;25.66;52.74
52839;BME280;39219;53.678;9.856;2022-08-01T09:51:32;101454.19;;;25.68;52.05
52839;BME280;39219;53.678;9.856;2022-08-01T09:53:59;101452.34;;;25.44;55.61
52839;BME280;39219;53.678;9.856;2022-08-01T09:56:35;101454.78;;;24.98;56.55
52839;BME280;39219;53.678;9.856;2022-08-01T09:59:02;101458.97;;;24.52;56.01
52839;BME280;39219;53.678;9.856;2022-08-01T10:01:43;101456.13;;;24.80;54.65
52839;BME280;39219;53.678;9.856;2022-08-01T10:04:12;101465.47;;;25.50;54.88
52839;BME280;39219;53.678;9.856;2022-08-01T10:06:40;101457.94;;;25.90;55.10
52839;BME280;39219;53.678;9.856;2022-08-01T10:09:08;101468.75;;;26.02;51.02
52839;BME280;39219;53.678;9.856;2022-08-01T10:11:37;101462.28;;;26.28;52.76
52839;BME280;39219;53.678;9.856;2022-08-01T10:14:06;101477.78;;;26.61;52.73
52839;BME280;39219;53.678;9.856;2022-08-01T10:16:34;101476.91;;;26.72;52.80
52839;BME280;39219;53.678;9.856;2022-08-01T10:19:02;101477.50;;;27.10;46.77
52839;BME280;39219;53.678;9.856;2022-08-01T10:21:32;101481.25;;;26.75;46.84
52839;BME280;39219;53.678;9.856;2022-08-01T10:23:58;101480.13;;;26.43;50.41
52839;BME280;39219;53.678;9.856;2022-08-01T10:26:29;101479.72;;;26.37;49.19
52839;BME280;39219;53.678;9.856;2022-08-01T10:29:00;101472.28;;;26.16;48.77
52839;BME280;39219;53.678;9.856;2022-08-01T10:31:27;101487.75;;;26.15;49.97
52839;BME280;39219;53.678;9.856;2022-08-01T10:33:58;101481.25;;;26.05;47.81
52839;BME280;39219;53.678;9.856;2022-08-01T10:36:25;101477.00;;;25.90;45.82
52839;BME280;39219;53.678;9.856;2022-08-01T10:38:54;101478.53;;;26.05;48.57
52839;BME280;39219;53.678;9.856;2022-08-01T10:41:20;101472.41;;;25.79;49.02
52839;BME280;39219;53.678;9.856;2022-08-01T10:43:47;101482.44;;;25.90;49.82
52839;BME280;39219;53.678;9.856;2022-08-01T10:46:18;101483.59;;;25.98;47.65
52839;BME280;39219;53.678;9.856;2022-08-01T10:48:49;101482.06;;;25.83;50.12
52839;BME280;39219;53.678;9.856;2022-08-01T10:51:18;101476.00;;;25.91;50.83
52839;BME280;39219;53.678;9.856;2022-08-01T10:53:46;101478.03;;;26.00;54.13
52839;BME280;39219;53.678;9.856;2022-08-01T10:56:13;101488.09;;;25.86;49.75
52839;BME280;39219;53.678;9.856;2022-08-01T10:58:43;101486.97;;;25.78;48.15
52839;BME280;39219;53.678;9.856;2022-08-01T11:01:19;101481.81;;;25.86;50.47
52839;BME280;39219;53.678;9.856;2022-08-01T11:03:57;101489.28;;;26.42;50.42
52839;BME280;39219;53.678;9.856;2022-08-01T11:06:25;101485.81;;;26.40;48.52
52839;BME280;39219;53.678;9.856;2022-08-01T11:08:55;101498.19;;;26.56;47.24
52839;BME280;39219;53.678;9.856;2022-08-01T11:11:23;101498.19;;;26.44;45.54
52839;BME280;39219;53.678;9.856;2022-08-01T11:14:04;101499.53;;;26.39;46.62
52839;BME280;39219;53.678;9.856;2022-08-01T11:16:37;101497.81;;;26.49;46.50
52839;BME280;39219;53.678;9.856;2022-08-01T11:19:05;101501.16;;;26.41;47.12
52839;BME280;39219;53.678;9.856;2022-08-01T11:21:58;101494.59;;;26.44;45.52
52839;BME280;39219;53.678;9.856;2022-08-01T11:24:54;101500.16;;;26.54;48.19
52839;BME280;39219;53.678;9.856;2022-08-01T11:27:24;101508.41;;;26.18;47.52
52839;BME280;39219;53.678;9.856;2022-08-01T11:30:21;101506.56;;;26.19;45.94
52839;BME280;39219;53.678;9.856;2022-08-01T11:32:50;101509.59;;;26.02;46.41
52839;BME280;39219;53.678;9.856;2022-08-01T11:35:18;101498.75;;;25.90;46.26
52839;BME280;39219;53.678;9.856;2022-08-01T11:37:46;101501.78;;;26.09;46.38
52839;BME280;39219;53.678;9.856;2022-08-01T11:40:17;101509.13;;;26.20;46.70
52839;BME280;39219;53.678;9.856;2022-08-01T11:42:45;101503.53;;;26.10;45.50
52839;BME280;39219;53.678;9.856;2022-08-01T11:45:11;101497.91;;;26.25;47.07
52839;BME280;39219;53.678;9.856;2022-08-01T11:47:46;101508.81;;;26.36;47.92
52839;BME280;39219;53.678;9.856;2022-08-01T11:52:59;101517.09;;;25.99;45.45
52839;BME280;39219;53.678;9.856;2022-08-01T11:55:27;101505.97;;;26.02;44.28
52839;BME280;39219;53.678;9.856;2022-08-01T11:58:01;101508.00;;;25.51;46.01
52839;BME280;39219;53.678;9.856;2022-08-01T12:00:28;101508.13;;;25.50;46.67
52839;BME280;39219;53.678;9.856;2022-08-01T12:02:57;101519.22;;;25.34;47.26
52839;BME280;39219;53.678;9.856;2022-08-01T12:05:24;101511.09;;;25.47;45.27
52839;BME280;39219;53.678;9.856;2022-08-01T12:07:52;101529.78;;;25.38;45.72
52839;BME280;39219;53.678;9.856;2022-08-01T12:10:22;101530.50;;;25.16;44.53
52839;BME280;39219;53.678;9.856;2022-08-01T12:12:51;101525.94;;;25.41;47.63
52839;BME280;39219;53.678;9.856;2022-08-01T12:15:20;101523.97;;;25.43;48.16
52839;BME280;39219;53.678;9.856;2022-08-01T12:17:49;101528.88;;;25.51;44.83
52839;BME280;39219;53.678;9.856;2022-08-01T12:20:20;101532.88;;;25.58;45.66
52839;BME280;39219;53.678;9.856;2022-08-01T12:22:47;101535.31;;;25.50;43.17
52839;BME280;39219;53.678;9.856;2022-08-01T12:25:15;101534.47;;;25.23;44.36
52839;BME280;39219;53.678;9.856;2022-08-01T12:27:44;101544.00;;;24.92;44.35
52839;BME280;39219;53.678;9.856;2022-08-01T12:30:12;101540.63;;;25.01;43.31
52839;BME280;39219;53.678;9.856;2022-08-01T12:32:41;101546.06;;;25.01;43.70
52839;BME280;39219;53.678;9.856;2022-08-01T12:35:09;101545.72;;;24.93;43.11
52839;BME280;39219;53.678;9.856;2022-08-01T12:37:36;101548.69;;;25.03;44.27
52839;BME280;39219;53.678;9.856;2022-08-01T12:40:10;101553.88;;;25.06;43.40
52839;BME280;39219;53.678;9.856;2022-08-01T12:42:37;101539.34;;;24.81;42.60
52839;BME280;39219;53.678;9.856;2022-08-01T12:45:08;101549.56;;;24.90;41.51
52839;BME280;39219;53.678;9.856;2022-08-01T12:47:37;101547.25;;;24.71;40.96
52839;BME280;39219;53.678;9.856;2022-08-01T12:50:06;101542.41;;;24.76;42.05
52839;BME280;39219;53.678;9.856;2022-08-01T12:52:34;101546.28;;;24.85;42.58
52839;BME280;39219;53.678;9.856;2022-08-01T12:55:05;101540.22;;;24.94;43.99